Fecha, hora, temperatura, viento dirección y velocidad, humedad y presión.

  • 16-01-2019 16:00:00 | 8.60°C | Nordeste |3.00 km/h | 38.00% | 0.00 hPa
  • 16-01-2019 15:00:00 | 9.10°C | Calma |0.00 km/h | 36.00% | 0.00 hPa
  • 16-01-2019 14:00:00 | 10.10°C | Sur |2.00 km/h | 37.00% | 0.00 hPa
  • 16-01-2019 13:00:00 | 7.90°C | Calma |0.00 km/h | 46.00% | 0.00 hPa
  • 16-01-2019 12:00:00 | 2.10°C | Calma |0.00 km/h | 60.00% | 0.00 hPa
  • 16-01-2019 11:00:00 | 0.10°C | Calma |0.00 km/h | 61.00% | 0.00 hPa
  • 16-01-2019 10:00:00 | -0.20°C | Calma |0.00 km/h | 58.00% | 0.00 hPa
  • 16-01-2019 09:00:00 | 1.60°C | Este |5.00 km/h | 52.00% | 0.00 hPa
  • 16-01-2019 08:00:00 | 0.00°C | Este |4.00 km/h | 54.00% | 0.00 hPa
  • 16-01-2019 07:00:00 | 0.50°C | Este |2.00 km/h | 51.00% | 0.00 hPa
  • 16-01-2019 06:00:00 | 1.10°C | Este |4.00 km/h | 48.00% | 0.00 hPa
  • 16-01-2019 05:00:00 | 2.40°C | Este |4.00 km/h | 47.00% | 0.00 hPa
  • 16-01-2019 04:00:00 | 2.40°C | Este |7.00 km/h | 45.00% | 0.00 hPa
  • 16-01-2019 03:00:00 | 2.00°C | Este |7.00 km/h | 48.00% | 0.00 hPa
  • 16-01-2019 02:00:00 | 0.10°C | Este |3.00 km/h | 58.00% | 0.00 hPa
  • 16-01-2019 01:00:00 | 0.30°C | Este |3.00 km/h | 56.00% | 0.00 hPa
  • 16-01-2019 00:00:00 | 0.10°C | Este |3.00 km/h | 60.00% | 0.00 hPa
  • 15-01-2019 23:00:00 | 0.50°C | Este |4.00 km/h | 60.00% | 0.00 hPa
  • 15-01-2019 22:00:00 | 0.00°C | Este |4.00 km/h | 62.00% | 0.00 hPa
  • 15-01-2019 21:00:00 | 1.20°C | Este |6.00 km/h | 57.00% | 0.00 hPa
  • 15-01-2019 20:00:00 | 1.20°C | Este |7.00 km/h | 57.00% | 0.00 hPa
  • 15-01-2019 19:00:00 | 1.10°C | Este |5.00 km/h | 60.00% | 0.00 hPa
  • 15-01-2019 18:00:00 | 0.40°C | Calma |0.00 km/h | 63.00% | 0.00 hPa
  • 15-01-2019 17:00:00 | 1.90°C | Calma |0.00 km/h | 61.00% | 0.00 hPa
    • diseño web asturias Información sobre el estado de las mareas, altura de la marejada, temperatura del agua y otros datos de Gijón en Asturias.

      Surf Gijón